Country
Station

 

Weather  for  Lappeenranta  -  Finland    Finland

  
8 °C (46 °F)
    
 
 

Current METAR for Lappeenranta is :

EFLP 161850Z AUTO 22010KT CAVOK 08/06 Q1032

 

This is a report for Lappeenranta - Finland.
 
The report was made 13 minutes ago, at 18:50 UTC .
The wind was blowing at a speed of 5.1 meters per second (11.5 miles per hour) from southwest (220°).
 
The temperature was 8 °C (46 °F), with a dew-point at 6 °C (43 °F).
The atmospheric pressure was 1032 hPa (30.47 inHg).
The relative humidity was 87.2%.
 
There were no clouds below 1500 meter (5000 feet) and no cumulonimbus clouds.
 
The overall visibility was greater than 10 kilometers (6.2 miles).
 

 
 
 
 

Country :   A   B   C   D   E   F   G   H   I   J   K   L   M   N   O   P   Q   R   S   T   U   V   W   Y   Z

 

Site Info  |  Disclaimer  |  Credits  |  Privacy
Contact us  |  Add to favorites
© 2013-2018 METARs - All rights reserved